Time;durP1;ratioP1;P1;durP2;ratioP2;P2;SDS_P1;SDS_P2;PMS_P1;PMS_P2;Temp;Humidity;BMP_temperature;BMP_pressure;BME280_temperature;BME280_humidity;BME280_pressure;Samples;Min_cycle;Max_cycle;Signal;HPM_P1;HPM_P2
2022/11/29 07:12:47;;;;;;;246.25;13.65;;;;;;;11.52;66.34;100900.56;6241126;22;21033;31
2022/11/29 07:15:19;;;;;;;178.77;7.97;;;;;;;11.28;66.86;100889.81;6207314;23;20017;-95
2022/11/29 07:18:11;;;;;;;109.13;7.00;;;;;;;11.91;65.90;100911.28;6224171;23;20024;-94
2022/11/29 07:20:55;;;;;;;;;;;;;;;12.05;64.67;100910.38;6205351;23;20011;-96
2022/11/29 10:51:15;;;;;;;46.13;5.07;;;;;;;12.52;69.14;101021.38;6277434;22;19922;-96
2022/11/29 10:58:55;;;;;;;3.70;2.88;;;;;;;12.77;69.20;101036.41;6272282;22;20979;-94
2022/11/29 12:16:35;;;;;;;9.63;3.70;;;;;;;12.75;69.45;101022.47;6317511;22;19995;-96
2022/11/29 12:24:32;;;;;;;27.63;4.80;;;;;;;13.17;67.72;101038.94;6280636;22;20061;-95
2022/11/29 12:27:03;;;;;;;22.48;5.05;;;;;;;13.08;68.51;101029.88;6316610;22;20014;-95
2022/11/29 12:29:36;;;;;;;42.43;4.37;;;;;;;12.85;68.58;101029.66;6321734;22;20007;-96
2022/11/29 12:32:31;;;;;;;42.05;4.88;;;;;;;13.18;67.66;101019.56;6294022;22;20018;-96
2022/11/29 12:35:40;;;;;;;41.80;4.13;;;;;;;13.30;68.04;101031.91;6326864;22;20563;-96
2022/11/29 14:04:06;;;;;;;36.20;7.63;;;;;;;13.43;64.97;101019.56;6299384;22;20016;-93
2022/11/29 14:06:37;;;;;;;84.90;8.55;;;;;;;13.57;65.21;101015.13;6312245;22;20057;-93
2022/11/29 14:09:02;;;;;;;73.72;7.53;;;;;;;13.99;64.02;101031.47;6319904;22;20006;-96
2022/11/29 14:11:36;;;;;;;74.20;7.82;;;;;;;14.27;63.10;101015.28;6322511;22;20000;-92
2022/11/29 14:14:32;;;;;;;23.10;7.35;;;;;;;14.65;62.57;101022.19;6315329;22;20003;-95
2022/11/29 14:17:07;;;;;;;81.88;8.77;;;;;;;14.41;62.79;101003.69;6314878;22;19999;-96
2022/11/29 14:19:36;;;;;;;16.35;6.47;;;;;;;13.98;64.83;101013.94;6316752;22;20003;-93
2022/11/29 14:22:10;;;;;;;64.68;7.50;;;;;;;14.04;63.90;101034.59;6319904;22;19999;-94
2022/11/29 14:24:36;;;;;;;38.38;6.90;;;;;;;14.05;63.46;101026.56;6314143;22;20007;-95
2022/11/29 14:30:02;;;;;;;15.23;5.82;;;;;;;14.17;64.04;101010.78;6318047;22;20010;-94
2022/11/29 14:32:57;;;;;;;42.58;7.25;;;;;;;13.67;64.67;101011.72;6315967;22;20003;-94
2022/11/29 14:35:30;;;;;;;37.97;6.47;;;;;;;13.54;65.11;101015.31;6315002;22;19999;-95
2022/11/29 14:38:22;;;;;;;53.58;8.43;;;;;;;13.82;65.63;101009.78;6313071;22;20317;-94
2022/11/29 14:40:56;;;;;;;141.02;9.95;;;;;;;13.23;65.82;101001.59;6314736;22;20007;-95
2022/11/29 14:43:39;;;;;;;39.72;6.72;;;;;;;13.62;65.23;101000.63;6312962;22;20082;-94
2022/11/29 14:46:14;;;;;;;18.17;6.05;;;;;;;13.50;66.47;101017.34;6312681;22;20003;-95
2022/11/29 14:48:59;;;;;;;81.00;8.93;;;;;;;13.61;66.03;101020.06;6317062;22;20036;-94
2022/11/29 14:51:29;;;;;;;215.85;13.00;;;;;;;12.97;66.82;101001.59;6317442;22;20080;-95
2022/11/29 14:54:21;;;;;;;66.78;7.28;;;;;;;13.71;65.93;101019.41;6315357;22;20045;-95
2022/11/29 14:56:46;;;;;;;92.55;9.40;;;;;;;12.97;66.50;100998.13;6314422;22;20057;-93
2022/11/29 14:59:41;;;;;;;9.55;5.90;;;;;;;13.81;65.34;101018.63;6315289;22;20007;-94
2022/11/29 15:02:27;;;;;;;160.23;9.90;;;;;;;13.48;65.46;101001.59;6314825;22;20008;-95
2022/11/29 15:04:55;;;;;;;52.33;7.80;;;;;;;13.71;64.81;101009.69;6317682;22;20015;-95
2022/11/29 15:07:29;;;;;;;10.05;6.00;;;;;;;14.00;64.19;101004.09;6313259;22;20000;-95
2022/11/29 15:10:01;;;;;;;143.40;10.23;;;;;;;13.50;65.71;101004.13;6311451;22;20094;-93
2022/11/29 15:12:33;;;;;;;14.70;5.75;;;;;;;13.59;65.56;101019.31;6313080;22;20082;-93
2022/11/29 15:15:22;;;;;;;9.20;5.95;;;;;;;13.66;65.41;101025.00;6312100;22;20011;-92
2022/11/29 15:17:55;;;;;;;48.05;8.02;;;;;;;13.17;66.24;101033.69;6312744;22;20023;-95
2022/11/29 15:20:36;;;;;;;46.03;8.35;;;;;;;13.40;66.34;101043.50;6313683;22;19999;-94
2022/11/29 15:23:12;;;;;;;71.20;8.05;;;;;;;13.03;67.04;101040.75;6313029;22;20003;-95
2022/11/29 15:25:49;;;;;;;33.83;7.82;;;;;;;13.14;66.34;101021.56;6312710;22;20034;-95
2022/11/29 15:28:33;;;;;;;24.88;6.80;;;;;;;13.26;66.97;101035.69;6316239;22;20037;-94
2022/11/29 15:31:06;;;;;;;69.85;8.40;;;;;;;13.10;67.26;101036.75;6313129;22;20004;-94
2022/11/29 15:33:35;;;;;;;92.45;9.65;;;;;;;13.23;65.99;101038.53;6315136;22;20027;-94
2022/11/29 15:36:12;;;;;;;209.18;10.65;;;;;;;13.33;65.93;101044.91;6312975;22;19999;-94
2022/11/29 15:38:45;;;;;;;160.15;10.90;;;;;;;13.17;66.19;101058.28;6312911;22;20003;-96
2022/11/29 15:41:25;;;;;;;139.25;10.32;;;;;;;13.20;67.40;101057.22;6313362;22;20003;-94
2022/11/29 15:43:54;;;;;;;31.65;7.63;;;;;;;13.46;66.32;101056.28;6312372;22;20015;-94
2022/11/29 15:46:24;;;;;;;80.20;9.77;;;;;;;13.58;66.27;101049.28;6311076;22;20087;-94
2022/11/29 15:48:50;;;;;;;120.28;10.18;;;;;;;13.25;65.60;101049.81;6310914;22;20053;-95
2022/11/29 15:51:32;;;;;;;161.27;12.32;;;;;;;12.79;67.50;101031.88;6312560;22;20003;-94
2022/11/29 15:54:05;;;;;;;37.17;7.90;;;;;;;12.36;70.52;101047.88;6314020;22;20086;-96
2022/11/29 15:56:47;;;;;;;33.22;7.72;;;;;;;13.19;67.86;101071.31;6314726;22;20003;-93
2022/11/29 15:59:37;;;;;;;244.95;13.02;;;;;;;12.99;68.42;101062.97;6312773;22;20090;-95
2022/11/29 16:02:09;;;;;;;80.75;8.98;;;;;;;13.37;67.14;101040.25;6313085;22;20038;-95
2022/11/29 16:04:39;;;;;;;73.85;10.55;;;;;;;13.12;67.60;101055.09;6317281;22;20063;-96
2022/11/29 16:07:05;;;;;;;25.42;9.32;;;;;;;13.15;67.70;101054.03;6316632;22;20057;-94
2022/11/29 16:09:34;;;;;;;32.97;8.05;;;;;;;13.29;67.03;101062.72;6315503;22;20008;-96
2022/11/29 16:12:01;;;;;;;47.92;9.60;;;;;;;13.33;67.32;101052.81;6314217;22;20004;-96
2022/11/29 16:14:27;;;;;;;33.95;10.95;;;;;;;13.36;66.56;101049.94;6317673;22;20003;-94
2022/11/29 16:16:55;;;;;;;151.77;13.15;;;;;;;14.94;62.72;101050.84;6316005;22;20023;-96
2022/11/29 16:19:27;;;;;;;82.38;10.88;;;;;;;15.84;59.92;101066.81;6310265;22;20046;-94
2022/11/29 16:22:23;;;;;;;45.80;10.80;;;;;;;16.26;57.95;101060.84;6314267;22;20027;-96
2022/11/29 16:24:54;;;;;;;45.80;10.77;;;;;;;16.37;57.70;101067.91;6286930;22;20086;-93
2022/11/29 16:27:21;;;;;;;37.22;10.88;;;;;;;14.10;62.63;101060.59;6314814;22;20003;-94
2022/11/29 16:29:48;;;;;;;51.58;11.70;;;;;;;13.82;64.36;101052.00;6311869;22;20029;-96
2022/11/29 16:32:23;;;;;;;57.78;12.25;;;;;;;14.09;63.79;101077.38;6320547;22;20053;-94
2022/11/29 16:34:49;;;;;;;22.23;10.15;;;;;;;13.83;64.31;101063.41;6321960;22;20011;-95
2022/11/29 16:37:24;;;;;;;86.50;11.48;;;;;;;13.33;65.81;101073.91;6320788;22;20015;-95
2022/11/29 16:39:59;;;;;;;90.60;11.45;;;;;;;15.02;62.03;101068.78;6314684;22;20003;-95
2022/11/29 16:42:33;;;;;;;96.97;10.85;;;;;;;13.46;65.09;101063.34;6320736;22;20038;-96
2022/11/29 16:45:09;;;;;;;17.42;9.63;;;;;;;15.42;60.22;101063.06;6296318;22;20015;-95
2022/11/29 16:47:56;;;;;;;112.40;12.40;;;;;;;15.50;59.69;101067.75;6322990;22;20006;-96
2022/11/29 16:50:26;;;;;;;56.00;11.23;;;;;;;15.39;59.06;101063.31;6320744;22;20003;-96
2022/11/29 16:56:24;;;;;;;83.43;11.45;;;;;;;12.97;67.78;101080.69;6330229;22;20007;-96
2022/11/29 16:59:00;;;;;;;100.90;11.10;;;;;;;13.44;66.15;101063.44;6315124;22;20387;-95
2022/11/29 17:01:28;;;;;;;23.77;10.15;;;;;;;13.71;64.78;101067.75;6320341;22;20045;-96
2022/11/29 17:03:59;;;;;;;238.77;18.27;;;;;;;15.05;61.69;101063.28;6329707;22;20062;-95
2022/11/29 17:06:32;;;;;;;47.08;11.48;;;;;;;15.93;58.58;101080.28;6301604;22;20007;-96
2022/11/29 17:08:58;;;;;;;18.70;10.40;;;;;;;15.89;58.24;101070.91;6300984;22;20007;-96
2022/11/29 17:11:27;;;;;;;27.42;10.98;;;;;;;16.14;57.79;101061.84;6333502;22;20054;-96
2022/11/29 17:13:56;;;;;;;211.75;16.60;;;;;;;15.67;58.63;101065.47;6332542;22;20051;-96
2022/11/29 17:16:41;;;;;;;170.30;16.67;;;;;;;16.43;57.42;101065.59;6282305;22;20007;-95
2022/11/29 17:19:23;;;;;;;86.78;13.20;;;;;;;16.20;57.00;101054.22;6305217;22;20030;-95
2022/11/29 17:21:54;;;;;;;35.92;11.60;;;;;;;14.26;61.59;101061.16;6334057;22;20037;-96
2022/11/29 17:24:21;;;;;;;200.57;16.08;;;;;;;13.32;64.94;101066.94;6297954;22;20011;-96
2022/11/29 17:26:48;;;;;;;204.07;17.90;;;;;;;14.66;61.52;101068.81;6322610;22;20063;-96
2022/11/29 17:29:15;;;;;;;84.00;12.43;;;;;;;14.04;63.36;101069.78;6321756;22;20055;-93
2022/11/29 17:31:51;;;;;;;45.15;12.43;;;;;;;15.32;61.92;101064.75;6317998;22;20090;-96
2022/11/29 17:34:17;;;;;;;179.07;22.02;;;;;;;15.99;58.12;101062.09;6320665;22;20004;-96
2022/11/29 17:36:45;;;;;;;70.38;14.63;;;;;;;14.09;63.35;101095.84;6319767;22;20010;-96
2022/11/29 17:39:21;;;;;;;222.23;18.77;;;;;;;12.88;66.97;101070.78;6301790;22;20011;-95
2022/11/29 17:42:12;;;;;;;143.48;15.23;;;;;;;14.93;63.84;101069.47;6330507;22;19999;-96
2022/11/29 17:44:50;;;;;;;162.70;17.30;;;;;;;14.60;63.10;101071.06;6321507;22;20068;-96
2022/11/29 17:47:15;;;;;;;94.38;17.30;;;;;;;15.12;61.22;101084.81;6311871;22;20429;-94
2022/11/29 17:49:41;;;;;;;81.05;15.98;;;;;;;13.72;64.32;101071.22;6314049;22;19995;-95
2022/11/29 17:52:07;;;;;;;155.57;17.73;;;;;;;13.18;66.55;101099.50;6316832;22;19999;-95
2022/11/29 18:09:50;;;;;;;169.73;16.42;;;;;;;13.02;69.86;101093.59;6296404;22;20320;-96
2022/11/29 18:12:18;;;;;;;64.78;14.98;;;;;;;12.98;70.33;101113.19;6324444;22;20063;-95
2022/11/29 18:32:13;;;;;;;36.88;14.98;;;;;;;13.86;67.28;101093.06;6269876;22;20358;-95
2022/11/29 18:35:10;;;;;;;30.27;14.30;;;;;;;12.48;70.50;101102.41;6260332;22;20004;-95
2022/11/29 18:43:16;;;;;;;27.60;13.65;;;;;;;10.58;90.60;101106.88;6318274;22;20044;-96
2022/11/29 18:45:42;;;;;;;25.48;12.52;;;;;;;11.56;89.29;101110.78;6325007;22;20007;-95
2022/11/29 18:48:10;;;;;;;37.33;13.13;;;;;;;12.55;79.81;101110.75;6328693;22;20015;-96
2022/11/29 18:50:46;;;;;;;29.10;12.80;;;;;;;13.54;74.02;101112.94;6325410;22;20004;-96
2022/11/29 18:53:13;;;;;;;28.58;13.07;;;;;;;10.71;89.55;101113.97;6326910;22;20086;-96
2022/11/29 18:55:43;;;;;;;22.52;12.52;;;;;;;9.87;95.65;101106.34;6326275;22;20010;-96
2022/11/29 18:58:15;;;;;;;26.38;11.70;;;;;;;9.59;100.00;101114.81;6325630;22;20003;-96
2022/11/29 19:00:51;;;;;;;;;;;;;;;;;;;;;
2022/11/29 19:03:23;;;;;;;28.23;12.07;;;;;;;11.95;85.49;101101.38;6328860;22;20004;-96
2022/11/29 19:06:22;;;;;;;28.77;12.43;;;;;;;12.32;83.61;101101.69;6329731;22;20292;-96
2022/11/29 19:12:41;;;;;;;28.50;12.50;;;;;;;13.12;76.13;101113.09;6319600;22;20015;-96
2022/11/29 19:15:38;;;;;;;25.58;13.52;;;;;;;13.14;75.10;101128.81;6277374;22;21456;-96
2022/11/29 19:18:08;;;;;;;24.00;12.45;;;;;;;13.00;77.69;101130.59;6331505;22;20007;-96
2022/11/29 19:20:41;;;;;;;22.30;11.73;;;;;;;11.14;84.88;101117.66;6328945;22;20003;-96
2022/11/29 19:23:17;;;;;;;27.88;13.07;;;;;;;10.93;91.66;101133.75;6302017;22;19992;-96
2022/11/29 19:25:55;;;;;;;23.95;12.48;;;;;;;10.58;94.06;101118.22;6329858;22;19983;-96
